Time;durP1;ratioP1;P1;durP2;ratioP2;P2;SDS_P1;SDS_P2;PMS_P1;PMS_P2;Temp;Humidity;BMP_temperature;BMP_pressure;BME280_temperature;BME280_humidity;BME280_pressure;Samples;Min_cycle;Max_cycle;Signal;HPM_P1;HPM_P2
2021/10/12 00:01:44;;;;;;;3.17;1.87;;;;;;;;;;4994206;28;20823;-86
2021/10/12 00:04:10;;;;;;;1.17;0.95;;;;;;;;;;4992672;28;20089;-85
2021/10/12 00:06:36;;;;;;;0.32;0.32;;;;;;;;;;4996304;28;20057;-86
2021/10/12 00:09:02;;;;;;;0.10;0.10;;;;;;;;;;4995064;28;20041;-85
2021/10/12 00:11:28;;;;;;;0.43;0.43;;;;;;;;;;5000020;28;20978;-86
2021/10/12 00:13:55;;;;;;;1.20;0.87;;;;;;;;;;4998371;28;20062;-85
2021/10/12 00:16:21;;;;;;;2.33;0.60;;;;;;;;;;5003408;28;20037;-85
2021/10/12 00:18:47;;;;;;;3.33;0.85;;;;;;;;;;5004252;28;20046;-86
2021/10/12 00:21:13;;;;;;;0.57;0.57;;;;;;;;;;4998421;28;20026;-86
2021/10/12 00:23:39;;;;;;;0.27;0.27;;;;;;;;;;4993266;28;20296;-86
2021/10/12 00:26:06;;;;;;;3.00;1.30;;;;;;;;;;4991383;28;20065;-86
2021/10/12 00:28:32;;;;;;;2.03;0.97;;;;;;;;;;4999116;28;20035;-86
2021/10/12 00:30:58;;;;;;;0.95;0.77;;;;;;;;;;4997083;28;20431;-86
2021/10/12 00:33:25;;;;;;;0.57;0.57;;;;;;;;;;4998354;28;20037;-85
2021/10/12 00:35:51;;;;;;;;;;;;;;;;;;4997869;28;20030;-85
2021/10/12 00:38:17;;;;;;;0.10;0.10;;;;;;;;;;4996905;28;19941;-85
2021/10/12 00:40:44;;;;;;;0.23;0.23;;;;;;;;;;4998404;28;20036;-85
2021/10/12 00:43:10;;;;;;;0.20;0.20;;;;;;;;;;5002190;28;20079;-86
2021/10/12 00:45:37;;;;;;;0.40;0.40;;;;;;;;;;5002040;28;20503;-84
2021/10/12 00:48:03;;;;;;;;;;;;;;;;;;5004707;28;20293;-85
2021/10/12 00:50:31;;;;;;;0.10;0.10;;;;;;;;;;5002721;28;19920;-86
2021/10/12 00:52:57;;;;;;;1.85;0.82;;;;;;;;;;4997948;28;20683;-85
2021/10/12 00:55:23;;;;;;;0.52;0.52;;;;;;;;;;4995266;28;20038;-86
2021/10/12 00:57:50;;;;;;;1.27;0.67;;;;;;;;;;4994325;28;20838;-85
2021/10/12 01:00:16;;;;;;;0.70;0.70;;;;;;;;;;4992323;28;20300;-85
2021/10/12 01:02:42;;;;;;;2.03;0.98;;;;;;;;;;4998007;28;20038;-85
2021/10/12 01:05:08;;;;;;;0.50;0.50;;;;;;;;;;5002739;28;20494;-85
2021/10/12 01:07:35;;;;;;;0.25;0.25;;;;;;;;;;4996392;28;20034;-85
2021/10/12 01:10:01;;;;;;;1.25;1.02;;;;;;;;;;4994060;28;20038;-86
2021/10/12 01:12:27;;;;;;;0.28;0.28;;;;;;;;;;4992756;28;20040;-85
2021/10/12 01:14:54;;;;;;;0.20;0.20;;;;;;;;;;4994018;28;20037;-85
2021/10/12 01:17:20;;;;;;;0.87;0.67;;;;;;;;;;5003026;28;20487;-86
2021/10/12 01:19:46;;;;;;;0.20;0.20;;;;;;;;;;5002433;28;20221;-85
2021/10/12 01:22:12;;;;;;;3.17;1.00;;;;;;;;;;4993118;28;20030;-85
2021/10/12 01:24:38;;;;;;;1.43;1.03;;;;;;;;;;4995919;28;20033;-85
2021/10/12 01:27:05;;;;;;;0.13;0.13;;;;;;;;;;4993351;28;20076;-85
2021/10/12 01:29:31;;;;;;;6.30;0.80;;;;;;;;;;4999412;28;20252;-85
2021/10/12 01:31:57;;;;;;;0.63;0.38;;;;;;;;;;5001940;28;20033;-84
2021/10/12 01:34:23;;;;;;;0.40;0.40;;;;;;;;;;5001117;28;20025;-84
2021/10/12 01:36:50;;;;;;;0.75;0.70;;;;;;;;;;4991429;28;20025;-86
2021/10/12 01:39:16;;;;;;;0.20;0.20;;;;;;;;;;4990593;28;20537;-86
2021/10/12 01:41:42;;;;;;;0.63;0.63;;;;;;;;;;4992652;28;20807;-85
2021/10/12 01:44:12;;;;;;;0.10;0.10;;;;;;;;;;4991069;28;20265;-86
2021/10/12 01:46:38;;;;;;;1.95;1.55;;;;;;;;;;4997357;28;20053;-84
2021/10/12 01:49:04;;;;;;;1.87;0.40;;;;;;;;;;4994364;28;20033;-85
2021/10/12 01:51:31;;;;;;;0.33;0.33;;;;;;;;;;4993752;28;20285;-85
2021/10/12 01:53:57;;;;;;;0.40;0.40;;;;;;;;;;4994272;28;20076;-86
2021/10/12 01:56:23;;;;;;;0.25;0.25;;;;;;;;;;4990605;28;20503;-85
2021/10/12 01:58:52;;;;;;;0.40;0.40;;;;;;;;;;4993778;28;20042;-85
2021/10/12 02:01:19;;;;;;;5.65;1.17;;;;;;;;;;4991241;28;20045;-84
2021/10/12 02:03:45;;;;;;;0.73;0.73;;;;;;;;;;4991102;28;20041;-84
2021/10/12 02:06:11;;;;;;;0.68;0.68;;;;;;;;;;4994473;28;20064;-85
2021/10/12 02:08:37;;;;;;;0.23;0.23;;;;;;;;;;4990089;28;20026;-84
2021/10/12 02:11:04;;;;;;;0.98;0.98;;;;;;;;;;4991306;28;20080;-85
2021/10/12 02:13:30;;;;;;;0.75;0.75;;;;;;;;;;4989747;28;20518;-85
2021/10/12 02:15:56;;;;;;;0.10;0.10;;;;;;;;;;4990595;28;20590;-84
2021/10/12 02:18:23;;;;;;;1.33;1.30;;;;;;;;;;4990302;28;20298;-84
2021/10/12 02:20:49;;;;;;;0.88;0.43;;;;;;;;;;4989704;28;20057;-85
2021/10/12 02:23:16;;;;;;;0.35;0.35;;;;;;;;;;4993117;28;20117;-85
2021/10/12 02:25:42;;;;;;;0.60;0.43;;;;;;;;;;4989165;28;20399;-86
2021/10/12 02:28:08;;;;;;;0.47;0.47;;;;;;;;;;4995179;28;20030;-85
2021/10/12 02:30:34;;;;;;;0.30;0.30;;;;;;;;;;4993019;28;20081;-85
2021/10/12 02:33:00;;;;;;;2.40;0.93;;;;;;;;;;4988860;28;20304;-85
2021/10/12 02:35:26;;;;;;;0.67;0.67;;;;;;;;;;4989685;28;20030;-85
2021/10/12 02:37:53;;;;;;;4.83;0.67;;;;;;;;;;4990173;28;20396;-85
2021/10/12 02:40:19;;;;;;;1.33;1.33;;;;;;;;;;4989751;28;20034;-85
2021/10/12 02:42:45;;;;;;;0.93;0.37;;;;;;;;;;4989772;28;20033;-85
2021/10/12 02:45:11;;;;;;;0.15;0.15;;;;;;;;;;4989304;28;20304;-85
2021/10/12 02:47:37;;;;;;;0.77;0.77;;;;;;;;;;4989065;28;20038;-86
2021/10/12 02:50:04;;;;;;;1.55;1.20;;;;;;;;;;4992945;28;20041;-85
2021/10/12 02:52:30;;;;;;;0.85;0.85;;;;;;;;;;4990481;28;20505;-85
2021/10/12 02:54:56;;;;;;;0.10;0.10;;;;;;;;;;4995982;28;20041;-86
2021/10/12 02:57:23;;;;;;;7.13;0.83;;;;;;;;;;4997837;28;20111;-85
2021/10/12 02:59:49;;;;;;;0.30;0.30;;;;;;;;;;4989582;28;20529;-85
2021/10/12 03:02:15;;;;;;;3.25;1.38;;;;;;;;;;4990717;28;20038;-86
2021/10/12 03:04:41;;;;;;;0.47;0.47;;;;;;;;;;4989597;28;20030;-86
2021/10/12 03:07:07;;;;;;;0.25;0.25;;;;;;;;;;4995065;28;20061;-86
2021/10/12 03:09:33;;;;;;;0.30;0.30;;;;;;;;;;4995084;28;20502;-85
2021/10/12 03:11:59;;;;;;;0.40;0.40;;;;;;;;;;4992905;28;20029;-85
2021/10/12 03:14:25;;;;;;;0.45;0.45;;;;;;;;;;4993476;28;20391;-85
2021/10/12 03:16:51;;;;;;;0.45;0.45;;;;;;;;;;4992718;28;20037;-85
2021/10/12 03:19:17;;;;;;;1.20;0.40;;;;;;;;;;4996038;28;20050;-86
2021/10/12 03:21:51;;;;;;;0.30;0.30;;;;;;;;;;4997141;28;20033;-86
2021/10/12 03:24:17;;;;;;;0.45;0.45;;;;;;;;;;4994587;28;20060;-85
2021/10/12 03:26:43;;;;;;;0.55;0.55;;;;;;;;;;5004741;28;20029;-86
2021/10/12 03:29:09;;;;;;;2.10;0.93;;;;;;;;;;4992677;28;20791;-86
2021/10/12 03:31:37;;;;;;;0.28;0.28;;;;;;;;;;4993902;28;20068;-85
2021/10/12 03:34:03;;;;;;;0.77;0.50;;;;;;;;;;4995908;28;20415;-85
2021/10/12 03:36:29;;;;;;;0.17;0.17;;;;;;;;;;4997299;28;20026;-85
2021/10/12 03:38:55;;;;;;;0.20;0.20;;;;;;;;;;4998358;28;20033;-85
2021/10/12 03:41:21;;;;;;;1.23;0.40;;;;;;;;;;5001082;28;20912;-86
2021/10/12 03:43:47;;;;;;;0.68;0.68;;;;;;;;;;4994250;28;20031;-86
2021/10/12 03:46:13;;;;;;;0.35;0.35;;;;;;;;;;4994492;28;20092;-87
2021/10/12 03:48:39;;;;;;;1.20;0.73;;;;;;;;;;4992474;28;20139;-86
2021/10/12 03:51:07;;;;;;;1.20;1.10;;;;;;;;;;4996453;28;21311;-85
2021/10/12 03:53:34;;;;;;;0.40;0.40;;;;;;;;;;4992069;28;20038;-85
2021/10/12 03:56:00;;;;;;;1.17;1.08;;;;;;;;;;5003945;28;20038;-86
2021/10/12 03:58:26;;;;;;;0.43;0.43;;;;;;;;;;5001394;28;20046;-86
2021/10/12 04:00:52;;;;;;;0.30;0.30;;;;;;;;;;4996675;28;20030;-86
2021/10/12 04:03:18;;;;;;;0.75;0.75;;;;;;;;;;5003010;28;20048;-86
2021/10/12 04:05:44;;;;;;;0.30;0.30;;;;;;;;;;4997835;28;20033;-86
2021/10/12 04:08:10;;;;;;;0.30;0.30;;;;;;;;;;4993646;28;20125;-86
2021/10/12 04:10:36;;;;;;;2.33;2.13;;;;;;;;;;4995647;28;20519;-85
2021/10/12 04:13:04;;;;;;;1.60;0.90;;;;;;;;;;4999981;28;20115;-85
2021/10/12 04:15:31;;;;;;;0.95;0.90;;;;;;;;;;5000730;28;20044;-85
2021/10/12 04:17:57;;;;;;;1.38;1.30;;;;;;;;;;4992840;28;20038;-86
2021/10/12 04:20:27;;;;;;;0.43;0.43;;;;;;;;;;4997572;28;20049;-85
2021/10/12 04:22:54;;;;;;;0.98;0.85;;;;;;;;;;4996871;28;20030;-85
2021/10/12 04:25:21;;;;;;;0.55;0.55;;;;;;;;;;5000793;28;20087;-85
2021/10/12 04:27:47;;;;;;;0.22;0.22;;;;;;;;;;5000214;28;20170;-85
2021/10/12 04:30:13;;;;;;;2.08;0.90;;;;;;;;;;4994022;28;20025;-85
2021/10/12 04:32:39;;;;;;;0.20;0.20;;;;;;;;;;4993829;28;20427;-85
2021/10/12 04:35:05;;;;;;;0.60;0.60;;;;;;;;;;4992947;28;20030;-85
2021/10/12 04:37:32;;;;;;;0.85;0.85;;;;;;;;;;4992590;28;20065;-86
2021/10/12 04:39:58;;;;;;;0.25;0.25;;;;;;;;;;4991128;28;20041;-86
2021/10/12 04:42:24;;;;;;;0.67;0.67;;;;;;;;;;4992915;28;20037;-85
2021/10/12 04:44:53;;;;;;;0.75;0.55;;;;;;;;;;4991269;28;20034;-87
2021/10/12 04:47:19;;;;;;;0.40;0.40;;;;;;;;;;4993725;28;20117;-88
2021/10/12 04:49:46;;;;;;;0.45;0.45;;;;;;;;;;4992677;28;20126;-86
2021/10/12 04:52:12;;;;;;;0.40;0.40;;;;;;;;;;4998048;28;20573;-86
2021/10/12 04:54:38;;;;;;;0.20;0.20;;;;;;;;;;4995668;28;20105;-86
2021/10/12 04:57:04;;;;;;;0.20;0.20;;;;;;;;;;5002096;28;20331;-86
2021/10/12 04:59:30;;;;;;;0.50;0.50;;;;;;;;;;4993770;28;20073;-86
2021/10/12 05:01:56;;;;;;;1.30;1.15;;;;;;;;;;4999916;28;20041;-86
2021/10/12 05:04:22;;;;;;;0.70;0.70;;;;;;;;;;4999319;28;20250;-85
2021/10/12 05:06:49;;;;;;;0.70;0.70;;;;;;;;;;5000529;28;20052;-85
2021/10/12 05:09:15;;;;;;;0.52;0.52;;;;;;;;;;5002345;28;20060;-86
2021/10/12 05:11:41;;;;;;;0.47;0.47;;;;;;;;;;4998494;28;20039;-87
2021/10/12 05:14:07;;;;;;;1.10;0.73;;;;;;;;;;5002583;28;20033;-84
2021/10/12 05:16:33;;;;;;;0.52;0.52;;;;;;;;;;4999473;28;20032;-84
2021/10/12 05:19:00;;;;;;;0.35;0.35;;;;;;;;;;4985490;28;20063;-85
2021/10/12 05:21:26;;;;;;;;;;;;;;;;;;4972224;28;20030;-85
2021/10/12 05:23:52;;;;;;;0.32;0.32;;;;;;;;;;4970615;28;19924;-84
2021/10/12 05:26:18;;;;;;;0.88;0.88;;;;;;;;;;4972964;28;20043;-85
2021/10/12 05:28:45;;;;;;;0.77;0.60;;;;;;;;;;4973203;28;20038;-84
2021/10/12 05:31:11;;;;;;;1.35;0.30;;;;;;;;;;4970882;28;20074;-85
2021/10/12 05:33:37;;;;;;;0.20;0.20;;;;;;;;;;4970500;28;20038;-85
2021/10/12 05:36:03;;;;;;;0.10;0.10;;;;;;;;;;4973036;28;20050;-85
2021/10/12 05:38:29;;;;;;;1.75;0.55;;;;;;;;;;4973735;28;20047;-84
2021/10/12 05:40:55;;;;;;;0.88;0.88;;;;;;;;;;4975356;28;20113;-83
2021/10/12 05:43:21;;;;;;;0.07;0.07;;;;;;;;;;4977058;28;20042;-85
2021/10/12 05:45:49;;;;;;;0.47;0.47;;;;;;;;;;4977228;28;20030;-84
2021/10/12 05:48:16;;;;;;;0.73;0.73;;;;;;;;;;4970971;28;20041;-83
2021/10/12 05:50:53;;;;;;;0.70;0.70;;;;;;;;;;5088613;27;1419739;-83
2021/10/12 06:00:53;;;;;;;1.88;0.63;;;;;;;;;;5108986;28;20437;-83
2021/10/12 06:03:19;;;;;;;4.47;1.37;;;;;;;;;;5121099;28;20023;-83
2021/10/12 06:05:45;;;;;;;1.60;0.43;;;;;;;;;;5104563;28;20023;-83
2021/10/12 06:08:11;;;;;;;0.40;0.40;;;;;;;;;;5106413;28;20038;-84
2021/10/12 06:10:38;;;;;;;0.28;0.28;;;;;;;;;;5116508;28;20408;-83
2021/10/12 06:13:09;;;;;;;0.10;0.10;;;;;;;;;;5115129;27;20055;-83
2021/10/12 06:15:35;;;;;;;0.38;0.38;;;;;;;;;;5112356;28;20501;-83
2021/10/12 06:18:01;;;;;;;0.30;0.30;;;;;;;;;;5119568;28;20027;-83
2021/10/12 06:20:28;;;;;;;0.38;0.38;;;;;;;;;;5120815;28;20031;-84
2021/10/12 06:22:54;;;;;;;0.63;0.63;;;;;;;;;;5114473;28;20035;-83
2021/10/12 06:25:20;;;;;;;0.30;0.30;;;;;;;;;;5112834;28;20056;-84
2021/10/12 06:27:46;;;;;;;0.20;0.20;;;;;;;;;;5112562;28;20035;-84
2021/10/12 06:30:12;;;;;;;0.10;0.10;;;;;;;;;;5117710;28;20046;-85
2021/10/12 06:32:38;;;;;;;0.25;0.25;;;;;;;;;;5119879;28;20180;-84
2021/10/12 06:35:05;;;;;;;0.40;0.40;;;;;;;;;;5107035;28;20092;-84
2021/10/12 06:37:31;;;;;;;;;;;;;;;;;;5109172;28;20381;-85
2021/10/12 06:39:57;;;;;;;0.30;0.30;;;;;;;;;;5109208;28;19912;-85
2021/10/12 06:42:23;;;;;;;0.10;0.10;;;;;;;;;;5105743;28;20859;-84
2021/10/12 06:44:49;;;;;;;0.43;0.43;;;;;;;;;;5116424;28;20067;-85
2021/10/12 06:47:15;;;;;;;0.98;0.90;;;;;;;;;;5104646;28;20130;-84
2021/10/12 06:49:41;;;;;;;0.27;0.27;;;;;;;;;;5107983;28;20060;-85
2021/10/12 06:52:08;;;;;;;0.20;0.20;;;;;;;;;;5108365;28;20552;-85
2021/10/12 06:54:34;;;;;;;0.87;0.87;;;;;;;;;;5111085;28;20405;-85
2021/10/12 06:57:01;;;;;;;0.45;0.45;;;;;;;;;;5119798;27;20543;-85
2021/10/12 06:59:28;;;;;;;0.40;0.40;;;;;;;;;;5103514;27;20035;-86
2021/10/12 07:01:54;;;;;;;1.38;0.45;;;;;;;;;;5102490;28;20058;-84
2021/10/12 07:04:20;;;;;;;0.50;0.50;;;;;;;;;;5094227;28;20031;-85
2021/10/12 07:06:46;;;;;;;0.25;0.25;;;;;;;;;;5092891;28;20488;-86
2021/10/12 07:09:16;;;;;;;1.35;0.85;;;;;;;;;;5091567;28;20091;-86
2021/10/12 07:11:42;;;;;;;0.85;0.55;;;;;;;;;;5094958;28;20031;-83
2021/10/12 07:14:08;;;;;;;0.95;0.80;;;;;;;;;;5090440;28;20028;-84
2021/10/12 07:16:34;;;;;;;0.30;0.30;;;;;;;;;;5102266;28;20035;-83
2021/10/12 07:19:00;;;;;;;0.20;0.20;;;;;;;;;;5100392;28;20573;-84
2021/10/12 07:21:26;;;;;;;0.05;0.05;;;;;;;;;;5093884;28;20032;-84
2021/10/12 07:23:53;;;;;;;0.60;0.33;;;;;;;;;;5089996;28;20092;-84
2021/10/12 07:26:18;;;;;;;;;;;;;;;;;;5090992;28;20259;-84
2021/10/12 07:28:45;;;;;;;0.20;0.20;;;;;;;;;;5093769;28;19922;-84
2021/10/12 07:31:11;;;;;;;0.05;0.05;;;;;;;;;;5094127;28;20035;-84
2021/10/12 07:33:37;;;;;;;0.73;0.50;;;;;;;;;;5093230;28;20035;-84
2021/10/12 07:36:04;;;;;;;2.15;0.75;;;;;;;;;;5091207;28;20593;-84
2021/10/12 07:38:30;;;;;;;;;;;;;;;;;;5089446;28;20032;-84
2021/10/12 07:40:56;;;;;;;0.20;0.20;;;;;;;;;;5093062;28;20368;-84
2021/10/12 07:43:22;;;;;;;0.10;0.10;;;;;;;;;;5094181;28;20155;-83
2021/10/12 07:45:48;;;;;;;0.32;0.25;;;;;;;;;;5093839;28;20032;-84
2021/10/12 07:48:18;;;;;;;0.43;0.40;;;;;;;;;;5092260;28;20483;-84
2021/10/12 07:50:44;;;;;;;0.80;0.80;;;;;;;;;;5088556;28;20700;-85
2021/10/12 07:53:10;;;;;;;0.30;0.30;;;;;;;;;;5106008;28;20032;-84
2021/10/12 07:55:40;;;;;;;0.10;0.10;;;;;;;;;;5095163;28;20039;-84
2021/10/12 07:58:06;;;;;;;1.17;0.52;;;;;;;;;;5093470;28;20127;-83
2021/10/12 08:00:32;;;;;;;0.10;0.10;;;;;;;;;;5093778;28;20026;-84
2021/10/12 08:03:02;;;;;;;3.75;0.63;;;;;;;;;;5090093;28;20027;-84
2021/10/12 08:05:29;;;;;;;1.98;0.22;;;;;;;;;;5089189;28;20063;-84
2021/10/12 08:07:55;;;;;;;;;;;;;;;;;;5093250;28;20027;-83
2021/10/12 08:10:22;;;;;;;0.57;0.57;;;;;;;;;;5099969;28;19927;-85
2021/10/12 08:12:52;;;;;;;0.80;0.80;;;;;;;;;;5102370;28;20043;-84
2021/10/12 08:15:20;;;;;;;0.50;0.50;;;;;;;;;;5105353;28;20063;-83
2021/10/12 08:17:46;;;;;;;0.57;0.22;;;;;;;;;;5087986;28;20115;-83
2021/10/12 08:20:12;;;;;;;0.35;0.28;;;;;;;;;;5105708;28;20031;-84
2021/10/12 08:22:38;;;;;;;0.30;0.30;;;;;;;;;;5104981;28;20070;-85
2021/10/12 08:25:07;;;;;;;0.55;0.52;;;;;;;;;;5099053;28;20039;-86
2021/10/12 08:27:33;;;;;;;0.88;0.57;;;;;;;;;;5093201;28;20074;-84
2021/10/12 08:29:59;;;;;;;0.05;0.05;;;;;;;;;;5089677;28;20039;-85
2021/10/12 08:32:25;;;;;;;0.00;0.00;;;;;;;;;;5104811;28;20020;-84
2021/10/12 08:34:51;;;;;;;1.00;0.40;;;;;;;;;;5093040;28;20143;-85
2021/10/12 08:37:17;;;;;;;0.10;0.10;;;;;;;;;;5093158;28;20059;-84
2021/10/12 08:39:44;;;;;;;0.28;0.28;;;;;;;;;;5092937;28;20507;-84
2021/10/12 08:42:25;;;;;;;0.10;0.10;;;;;;;;;;5091333;28;20438;-85
2021/10/12 08:44:58;;;;;;;0.32;0.32;;;;;;;;;;5086925;28;20072;-85
2021/10/12 08:47:25;;;;;;;0.65;0.63;;;;;;;;;;5101737;28;20696;-85
2021/10/12 08:49:51;;;;;;;0.73;0.73;;;;;;;;;;5092945;28;20055;-84
2021/10/12 08:52:18;;;;;;;0.30;0.30;;;;;;;;;;5092967;28;20028;-84
2021/10/12 08:54:44;;;;;;;0.32;0.32;;;;;;;;;;5092861;28;20040;-84
2021/10/12 08:57:11;;;;;;;0.10;0.10;;;;;;;;;;5090854;28;20030;-83
2021/10/12 08:59:37;;;;;;;0.88;0.77;;;;;;;;;;5088165;28;20941;-83
2021/10/12 09:02:06;;;;;;;0.40;0.23;;;;;;;;;;5091067;28;20044;-83
2021/10/12 09:04:39;;;;;;;1.85;0.43;;;;;;;;;;5092663;28;20685;-84
2021/10/12 09:07:15;;;;;;;0.57;0.40;;;;;;;;;;5092551;28;20050;-83
2021/10/12 09:09:41;;;;;;;2.40;0.25;;;;;;;;;;5095336;28;20052;-85
2021/10/12 09:12:07;;;;;;;0.20;0.20;;;;;;;;;;5104319;28;20122;-84
2021/10/12 09:14:33;;;;;;;0.40;0.40;;;;;;;;;;5087753;28;20040;-85
2021/10/12 09:17:06;;;;;;;0.45;0.45;;;;;;;;;;5091164;28;20255;-84
2021/10/12 09:19:35;;;;;;;0.10;0.10;;;;;;;;;;5092496;28;20047;-85
2021/10/12 09:22:05;;;;;;;0.10;0.10;;;;;;;;;;5092311;28;20034;-85
2021/10/12 09:24:36;;;;;;;0.10;0.10;;;;;;;;;;5092223;28;20124;-86
2021/10/12 09:27:04;;;;;;;0.20;0.20;;;;;;;;;;5089162;28;20020;-83
2021/10/12 09:29:37;;;;;;;0.57;0.57;;;;;;;;;;5087073;28;20048;-84
2021/10/12 09:32:04;;;;;;;0.10;0.10;;;;;;;;;;5088450;28;20024;-85
2021/10/12 09:34:34;;;;;;;0.40;0.38;;;;;;;;;;5092075;28;20141;-84
2021/10/12 09:37:00;;;;;;;0.52;0.52;;;;;;;;;;5095105;28;20050;-84
2021/10/12 09:39:29;;;;;;;0.20;0.20;;;;;;;;;;5103777;28;20024;-84
2021/10/12 09:41:57;;;;;;;2.38;1.02;;;;;;;;;;5103304;28;20102;-84
2021/10/12 09:44:23;;;;;;;1.20;0.70;;;;;;;;;;5101640;28;20055;-83
2021/10/12 09:46:50;;;;;;;0.17;0.17;;;;;;;;;;5088801;28;20025;-84
2021/10/12 09:49:21;;;;;;;0.57;0.35;;;;;;;;;;5099104;28;20118;-86
2021/10/12 09:51:56;;;;;;;2.33;0.15;;;;;;;;;;5100166;28;20047;-84
2021/10/12 09:54:23;;;;;;;0.10;0.10;;;;;;;;;;5090267;28;20077;-85
2021/10/12 09:56:49;;;;;;;0.25;0.10;;;;;;;;;;5103170;28;20026;-84
2021/10/12 09:59:15;;;;;;;0.20;0.20;;;;;;;;;;5088546;28;20408;-85
2021/10/12 10:01:43;;;;;;;5.95;0.57;;;;;;;;;;5091820;28;20070;-84
2021/10/12 10:04:11;;;;;;;0.05;0.05;;;;;;;;;;5092091;28;20118;-84
2021/10/12 10:06:40;;;;;;;0.98;0.43;;;;;;;;;;5093732;28;20027;-85
2021/10/12 10:09:06;;;;;;;0.52;0.40;;;;;;;;;;5103227;28;20131;-84
2021/10/12 10:11:34;;;;;;;1.27;0.47;;;;;;;;;;5103476;28;20039;-85
2021/10/12 10:14:01;;;;;;;0.17;0.17;;;;;;;;;;5103549;28;20035;-84
2021/10/12 10:16:28;;;;;;;0.17;0.17;;;;;;;;;;5103556;28;20028;-85
2021/10/12 10:18:54;;;;;;;0.10;0.10;;;;;;;;;;5103368;28;20026;-84
2021/10/12 10:21:21;;;;;;;0.38;0.38;;;;;;;;;;5103495;28;20027;-84
2021/10/12 10:23:47;;;;;;;0.30;0.30;;;;;;;;;;5103196;28;20585;-85
2021/10/12 10:26:42;;;;;;;0.20;0.20;;;;;;;;;;5104249;28;20023;-84
2021/10/12 10:29:27;;;;;;;2.63;1.10;;;;;;;;;;5040628;28;20139;-84
2021/10/12 10:31:54;;;;;;;0.10;0.10;;;;;;;;;;5040514;28;20285;-84
2021/10/12 10:34:31;;;;;;;0.20;0.20;;;;;;;;;;5039922;28;20033;-84
2021/10/12 10:37:15;;;;;;;0.15;0.15;;;;;;;;;;5042528;28;20033;-85
2021/10/12 10:39:45;;;;;;;3.30;1.02;;;;;;;;;;5043948;28;20057;-84
2021/10/12 10:42:26;;;;;;;0.30;0.30;;;;;;;;;;5030406;28;20040;-85
2021/10/12 10:44:56;;;;;;;0.22;0.10;;;;;;;;;;5028247;28;20131;-85
2021/10/12 10:47:42;;;;;;;0.30;0.30;;;;;;;;;;5023828;28;20132;-86
2021/10/12 10:50:28;;;;;;;0.10;0.10;;;;;;;;;;5031027;28;20826;-85
2021/10/12 10:52:55;;;;;;;0.10;0.10;;;;;;;;;;5044293;28;20067;-85
2021/10/12 10:55:24;;;;;;;0.45;0.30;;;;;;;;;;5043410;28;20037;-86
2021/10/12 10:58:05;;;;;;;0.10;0.10;;;;;;;;;;5043598;28;20460;-84
2021/10/12 11:00:44;;;;;;;0.20;0.20;;;;;;;;;;5043500;28;20067;-85
2021/10/12 11:03:29;;;;;;;0.22;0.22;;;;;;;;;;5043226;28;20128;-84
2021/10/12 11:05:59;;;;;;;0.10;0.10;;;;;;;;;;5068481;28;20047;-85
2021/10/12 11:08:29;;;;;;;0.20;0.20;;;;;;;;;;5107036;28;20073;-84
2021/10/12 11:11:09;;;;;;;1.05;0.30;;;;;;;;;;5106158;28;20039;-84
2021/10/12 11:13:36;;;;;;;0.10;0.10;;;;;;;;;;5096401;28;20399;-84
2021/10/12 11:16:03;;;;;;;1.00;0.75;;;;;;;;;;5098776;28;20112;-85
2021/10/12 11:18:29;;;;;;;0.60;0.60;;;;;;;;;;5106173;28;20028;-84
2021/10/12 11:21:00;;;;;;;0.55;0.40;;;;;;;;;;5090843;28;20026;-84
2021/10/12 11:23:33;;;;;;;0.22;0.22;;;;;;;;;;5090112;28;20089;-84
2021/10/12 11:25:59;;;;;;;0.25;0.25;;;;;;;;;;5106538;28;20757;-84
2021/10/12 11:28:26;;;;;;;0.07;0.07;;;;;;;;;;5097709;28;20032;-85
2021/10/12 11:30:52;;;;;;;0.20;0.15;;;;;;;;;;5094603;28;20319;-85
2021/10/12 11:33:40;;;;;;;0.70;0.70;;;;;;;;;;5093664;28;20020;-84
2021/10/12 11:36:06;;;;;;;0.73;0.57;;;;;;;;;;5092171;28;20479;-84
2021/10/12 11:38:38;;;;;;;0.10;0.10;;;;;;;;;;5104542;28;20886;-84
2021/10/12 11:41:16;;;;;;;0.08;0.08;;;;;;;;;;5090518;28;20030;-83
2021/10/12 11:43:43;;;;;;;0.03;0.03;;;;;;;;;;5094049;28;20040;-84
2021/10/12 11:46:09;;;;;;;0.08;0.08;;;;;;;;;;5100667;28;20743;-84
2021/10/12 11:48:36;;;;;;;0.10;0.10;;;;;;;;;;5103975;28;20039;-85
2021/10/12 11:51:02;;;;;;;;;;;;;;;;;;5091404;28;20043;-84
2021/10/12 11:53:28;;;;;;;0.88;0.75;;;;;;;;;;5089583;28;19919;-84
2021/10/12 11:56:10;;;;;;;0.20;0.20;;;;;;;;;;5106173;28;20118;-85
2021/10/12 11:58:37;;;;;;;0.25;0.25;;;;;;;;;;5104057;28;20038;-84
2021/10/12 12:01:04;;;;;;;0.40;0.40;;;;;;;;;;5100564;28;20032;-85
2021/10/12 12:03:30;;;;;;;0.10;0.10;;;;;;;;;;5093276;28;20417;-83
2021/10/12 12:05:57;;;;;;;0.10;0.10;;;;;;;;;;5105466;28;20037;-84
2021/10/12 12:08:24;;;;;;;0.43;0.10;;;;;;;;;;5089361;28;20039;-84
2021/10/12 12:10:50;;;;;;;1.15;0.47;;;;;;;;;;5106064;28;20841;-84
2021/10/12 12:13:16;;;;;;;0.10;0.10;;;;;;;;;;5098045;28;20036;-84
2021/10/12 12:15:43;;;;;;;0.30;0.30;;;;;;;;;;5093617;28;20032;-84
2021/10/12 12:18:19;;;;;;;2.10;0.57;;;;;;;;;;5091757;28;20043;-84
2021/10/12 12:20:49;;;;;;;0.50;0.50;;;;;;;;;;5088780;28;20790;-84
2021/10/12 12:23:29;;;;;;;0.10;0.10;;;;;;;;;;5090127;28;20032;-85
2021/10/12 12:25:55;;;;;;;0.15;0.15;;;;;;;;;;5104816;28;20031;-85
2021/10/12 12:28:22;;;;;;;0.10;0.05;;;;;;;;;;5096638;28;20568;-85
2021/10/12 12:30:48;;;;;;;0.40;0.10;;;;;;;;;;5093644;28;20036;-85
2021/10/12 12:33:14;;;;;;;0.80;0.40;;;;;;;;;;5091734;28;20484;-84
2021/10/12 12:35:44;;;;;;;0.10;0.10;;;;;;;;;;5088022;28;20028;-85
2021/10/12 12:38:11;;;;;;;0.00;0.00;;;;;;;;;;5090317;28;20043;-84
2021/10/12 12:40:39;;;;;;;0.10;0.10;;;;;;;;;;5093277;28;20024;-84
2021/10/12 12:43:25;;;;;;;0.10;0.10;;;;;;;;;;5092800;28;20036;-85
2021/10/12 12:46:09;;;;;;;0.32;0.32;;;;;;;;;;5092551;28;20108;-85
2021/10/12 12:48:35;;;;;;;0.20;0.20;;;;;;;;;;5092962;28;20026;-84
2021/10/12 12:51:05;;;;;;;0.10;0.10;;;;;;;;;;5089017;28;20448;-83
2021/10/12 12:53:58;;;;;;;0.05;0.05;;;;;;;;;;5087142;28;20492;-84
2021/10/12 12:56:30;;;;;;;0.25;0.22;;;;;;;;;;5081408;28;20048;-84
2021/10/12 12:59:03;;;;;;;0.10;0.10;;;;;;;;;;5103612;28;20156;-84
2021/10/12 13:01:29;;;;;;;0.38;0.38;;;;;;;;;;5095288;28;20024;-84
2021/10/12 13:03:55;;;;;;;0.20;0.20;;;;;;;;;;5096430;28;20019;-85
2021/10/12 13:06:22;;;;;;;0.27;0.17;;;;;;;;;;5102412;28;20285;-84
2021/10/12 13:08:49;;;;;;;0.40;0.08;;;;;;;;;;5103842;28;20798;-84
2021/10/12 13:11:34;;;;;;;0.00;0.00;;;;;;;;;;5089753;28;20046;-84
2021/10/12 13:14:00;;;;;;;0.15;0.15;;;;;;;;;;5104503;28;20023;-85
2021/10/12 13:16:26;;;;;;;0.13;0.13;;;;;;;;;;5095591;28;20023;-85
2021/10/12 13:18:52;;;;;;;0.10;0.10;;;;;;;;;;5092109;28;20051;-85
2021/10/12 13:21:18;;;;;;;0.17;0.15;;;;;;;;;;5091464;28;20023;-84
2021/10/12 13:23:45;;;;;;;0.08;0.08;;;;;;;;;;5087379;28;20063;-84
2021/10/12 13:26:11;;;;;;;0.05;0.05;;;;;;;;;;5090058;28;20036;-83
2021/10/12 13:28:37;;;;;;;0.30;0.30;;;;;;;;;;5092452;28;20024;-84
2021/10/12 13:31:03;;;;;;;0.40;0.40;;;;;;;;;;5095745;28;20309;-85
2021/10/12 13:33:29;;;;;;;0.25;0.25;;;;;;;;;;5103828;28;20074;-85
2021/10/12 13:35:55;;;;;;;0.03;0.03;;;;;;;;;;5087554;28;20759;-86
2021/10/12 13:38:21;;;;;;;0.27;0.27;;;;;;;;;;5088409;28;20302;-85
2021/10/12 13:40:47;;;;;;;0.25;0.25;;;;;;;;;;5092288;28;20046;-84
2021/10/12 13:43:14;;;;;;;0.23;0.23;;;;;;;;;;5098403;28;20233;-85
2021/10/12 13:45:40;;;;;;;1.73;0.73;;;;;;;;;;5101588;28;20101;-84
2021/10/12 13:48:06;;;;;;;0.55;0.20;;;;;;;;;;5089072;28;20024;-83
2021/10/12 13:50:32;;;;;;;0.30;0.30;;;;;;;;;;5086610;28;20102;-84
2021/10/12 13:52:58;;;;;;;1.20;0.67;;;;;;;;;;5089902;28;20959;-85
2021/10/12 13:55:24;;;;;;;0.70;0.40;;;;;;;;;;5098092;28;20306;-84
2021/10/12 13:57:50;;;;;;;0.20;0.20;;;;;;;;;;5099748;28;20631;-84
2021/10/12 14:00:19;;;;;;;0.97;0.63;;;;;;;;;;5090392;28;20027;-84
2021/10/12 14:02:45;;;;;;;0.20;0.20;;;;;;;;;;5087112;28;20118;-85
2021/10/12 14:05:11;;;;;;;0.10;0.10;;;;;;;;;;5089225;28;20032;-85
2021/10/12 14:07:38;;;;;;;0.10;0.10;;;;;;;;;;5099893;28;20281;-84
2021/10/12 14:10:05;;;;;;;0.88;0.65;;;;;;;;;;5097949;28;20044;-84
2021/10/12 14:12:31;;;;;;;0.20;0.20;;;;;;;;;;5095495;28;20068;-84
2021/10/12 14:14:58;;;;;;;0.23;0.23;;;;;;;;;;5091771;28;20152;-84
2021/10/12 14:17:27;;;;;;;0.25;0.25;;;;;;;;;;5091436;28;20289;-84
2021/10/12 14:19:54;;;;;;;0.52;0.30;;;;;;;;;;5094878;28;20036;-85
2021/10/12 14:22:20;;;;;;;0.13;0.13;;;;;;;;;;5103007;28;20036;-84
2021/10/12 14:24:46;;;;;;;0.30;0.20;;;;;;;;;;5105435;28;20031;-85
2021/10/12 14:27:13;;;;;;;0.45;0.45;;;;;;;;;;5107012;28;20030;-85
2021/10/12 14:29:39;;;;;;;0.20;0.20;;;;;;;;;;5090687;28;20044;-84
2021/10/12 14:32:05;;;;;;;0.85;0.55;;;;;;;;;;5094362;28;20028;-85
2021/10/12 14:34:31;;;;;;;0.00;0.00;;;;;;;;;;5102364;28;20480;-85
2021/10/12 14:37:00;;;;;;;0.00;0.00;;;;;;;;;;5102093;28;20031;-85
2021/10/12 14:39:27;;;;;;;0.45;0.30;;;;;;;;;;5095387;28;20030;-85
2021/10/12 14:41:54;;;;;;;0.10;0.10;;;;;;;;;;5090599;28;20111;-84
2021/10/12 14:44:20;;;;;;;0.20;0.20;;;;;;;;;;5103296;28;20034;-84
2021/10/12 14:46:46;;;;;;;5.75;0.40;;;;;;;;;;5095439;28;20070;-85
2021/10/12 14:49:13;;;;;;;0.90;0.55;;;;;;;;;;5094736;28;20071;-85
2021/10/12 14:51:39;;;;;;;0.10;0.10;;;;;;;;;;5095337;28;20070;-84
2021/10/12 14:54:05;;;;;;;0.00;0.00;;;;;;;;;;5092192;28;20031;-85
2021/10/12 14:56:31;;;;;;;0.00;0.00;;;;;;;;;;5090452;28;20026;-83